Skip to main content

NOAA/GLERL Met Station at Chicago, IL

Previous 3 Hours (2 minute increments)
See also Previous 5 Days (top of hour)
Jump down to Data
Switch to [English][Metric]
Zoom: Click and drag, Pan: shift-click and drag, Unzoom: double-click, Unzoom All




See also 1-day windrose plot


NOAA/GLERL Met Station at Chicago, IL

Previous 3 Hours (2 minute increments)
See also Previous 5 Days (top of hour only)
Jump up to Graphs
Switch to [English][Metric]
                  Wind  Wind  Wind   Air   Dew   Rel
                   Spd   Gst   Dir  Temp    Pt   Hum
YYYY-MM-DD   CDT   kts   kts   deg     F     F     %
2017-08-23 08:50   8.6   9.9   299  67.3  51.6  56.6
2017-08-23 08:48   9.7  10.7   308  67.3  51.5  56.5
2017-08-23 08:46   8.7   9.5   306  67.1  52.2  58.4
2017-08-23 08:44   9.7  11.7   300  67.1  51.6  57.1
2017-08-23 08:42   9.1  11.1   302  67.1  52.1  58.2
2017-08-23 08:40   9.3  10.9   306  67.1  52.2  58.4
2017-08-23 08:38  10.1  11.5   307  67.1  52.3  58.5
2017-08-23 08:36   9.5  10.7   305  66.9  51.6  57.5
2017-08-23 08:34   9.7  10.9   301  66.9  51.8  57.9
2017-08-23 08:32   8.6   9.7   299  66.7  51.2  57.0
2017-08-23 08:30   9.5  10.5   296  66.7  51.8  58.1
2017-08-23 08:28   8.9  10.5   304  66.7  52.4  59.5
2017-08-23 08:26   9.1  10.9   300  66.6  51.3  57.6
2017-08-23 08:24   9.7  10.9   298  66.4  51.2  57.7
2017-08-23 08:22  10.9  12.2   302  66.4  51.6  58.5
2017-08-23 08:20  10.3  12.1   301  66.4  51.5  58.4
2017-08-23 08:18  10.5  11.3   305  66.4  51.5  58.4
2017-08-23 08:16  11.9  14.2   305  66.4  51.6  58.6
2017-08-23 08:14  11.5  12.2   303  66.4  51.3  57.9
2017-08-23 08:12  11.3  12.2   309  66.4  52.0  59.3
2017-08-23 08:10  11.7  13.6   314  66.4  51.3  57.9
2017-08-23 08:08  12.2  14.2   307  66.4  52.3  60.1
2017-08-23 08:06  11.3  13.2   305  66.2  52.2  60.2
2017-08-23 08:04  12.8  14.8   310  66.4  51.9  59.2
2017-08-23 08:02  13.0  14.6   308  66.0  52.5  61.2
2017-08-23 08:00  13.6  15.9   311  66.0  52.0  60.2
2017-08-23 07:58  14.0  15.4   313  66.0  52.2  60.6
2017-08-23 07:56  14.4  16.3   314  66.0  52.1  60.3
2017-08-23 07:54  13.4  15.6   308  66.0  52.9  62.2
2017-08-23 07:52  14.2  15.9   311  65.8  52.1  60.7
2017-08-23 07:50  14.2  15.4   308  65.8  52.2  60.9
2017-08-23 07:48  15.2  17.1   308  65.8  51.5  59.5
2017-08-23 07:46  15.0  16.9   306  65.8  52.2  61.0
2017-08-23 07:44  14.8  15.9   306  65.8  52.1  60.7
2017-08-23 07:42  15.7  17.3   305  66.0  52.6  61.4
2017-08-23 07:40  14.0  15.4   306  66.0  52.8  62.0
2017-08-23 07:38  15.0  16.5   308  65.8  52.1  60.7
2017-08-23 07:36  15.7  17.5   311  65.8  51.5  59.5
2017-08-23 07:34  15.9  19.1   312  65.8  51.7  59.9
2017-08-23 07:32  15.6  17.9   308  65.8  52.4  61.4
2017-08-23 07:30  17.9  19.4   306  66.0  51.7  59.4
2017-08-23 07:28  15.7  19.6   302  66.0  52.5  61.2
2017-08-23 07:26  16.1  18.1   300  66.0  51.9  60.0
2017-08-23 07:24  15.2  16.9   296  66.0  52.4  61.0
2017-08-23 07:22  15.6  17.5   296  65.8  51.9  60.2
2017-08-23 07:20  15.7  17.7   298  66.0  51.9  59.9
2017-08-23 07:18  15.4  17.3   297  66.0  52.0  60.2
2017-08-23 07:16  15.2  17.5   298  65.8  51.6  59.6
2017-08-23 07:14  14.8  16.9   296  65.8  52.2  60.9
2017-08-23 07:12  15.0  16.9   295  65.7  52.7  62.5
2017-08-23 07:10  15.0  16.5   291  65.5  51.6  60.3
2017-08-23 07:08  14.6  16.3   297  65.7  52.4  61.8
2017-08-23 07:06  15.0  17.5   293  65.7  51.7  60.3
2017-08-23 07:04  15.7  17.5   294  65.7  51.7  60.3
2017-08-23 07:02  14.8  15.9   293  65.7  51.9  60.7
2017-08-23 07:00  14.6  16.5   294  65.7  52.1  61.1
2017-08-23 06:58  15.2  17.5   294  65.7  52.0  60.9
2017-08-23 06:56  15.4  16.9   295  65.7  51.7  60.2
2017-08-23 06:54  14.4  16.7   292  65.5  52.3  62.0
2017-08-23 06:52  15.7  17.1   291  65.5  51.2  59.5
2017-08-23 06:50  14.2  16.7   293  65.5  52.2  61.8
2017-08-23 06:48  14.6  16.9   291  65.3  52.0  61.8
2017-08-23 06:46  14.0  15.6   289  65.3  52.3  62.5
2017-08-23 06:44  13.8  15.4   288  65.5  52.6  62.7
2017-08-23 06:42  13.8  15.2   289  65.1  52.2  62.6
2017-08-23 06:40  14.4  16.9   284  65.1  52.6  63.6
2017-08-23 06:38  14.8  16.3   285  65.1  52.4  63.1
2017-08-23 06:36  15.0  16.5   284  64.9  52.0  62.6
2017-08-23 06:34  15.2  17.1   285  65.1  52.2  62.6
2017-08-23 06:32  14.4  15.9   287  64.9  52.7  64.2
2017-08-23 06:30  16.1  17.7   287  64.9  52.0  62.6
2017-08-23 06:28  15.7  17.5   284  65.1  52.4  63.0
2017-08-23 06:26  15.7  17.9   286  64.9  52.3  63.2
2017-08-23 06:24  15.2  16.9   283  64.9  52.3  63.3
2017-08-23 06:22  14.4  15.9   282  64.9  53.1  65.0
2017-08-23 06:20  14.4  15.6   279  64.8  52.2  63.4
2017-08-23 06:18  13.6  15.0   281  64.9  52.6  63.9
2017-08-23 06:16  13.0  15.0   280  64.9  53.3  65.6
2017-08-23 06:14  12.8  14.2   282  64.9  53.1  65.0
2017-08-23 06:12  13.2  14.0   282  64.9  53.0  64.8
2017-08-23 06:10  13.4  14.8   281  64.9  52.9  64.5
2017-08-23 06:08  12.6  13.6   282  65.1  53.0  64.4
2017-08-23 06:06  13.2  14.8   281  65.1  52.9  64.3
2017-08-23 06:04  13.0  14.8   281  65.1  52.7  63.7
2017-08-23 06:02  12.8  13.8   278  65.3  52.9  63.8
2017-08-23 06:00  12.6  14.0   279  65.3  52.4  62.6
2017-08-23 05:58  12.2  13.4   277  65.5  53.2  64.2
2017-08-23 05:56  12.2  13.6   282  65.5  52.5  62.4
2017-08-23 05:54  11.9  13.4   285  65.5  52.6  62.6
2017-08-23 05:52  11.9  13.4   281  65.3  52.4  62.7
2017-08-23 05:50  13.0  14.6   286  65.3  52.2  62.2